Time;durP1;ratioP1;P1;durP2;ratioP2;P2;SDS_P1;SDS_P2;PMS_P1;PMS_P2;Temp;Humidity;BMP_temperature;BMP_pressure;BME280_temperature;BME280_humidity;BME280_pressure;Samples;Min_cycle;Max_cycle;Signal;HPM_P1;HPM_P2
2023/10/21 00:02:14;;;;;;;;;;;20.30;89.30;;;;;;5028109;28;43000;-78
2023/10/21 00:04:40;;;;;;;;;;;20.30;89.70;;;;;;5022753;28;42940;-80
2023/10/21 00:07:05;;;;;;;;;;;20.30;89.70;;;;;;5025523;28;42974;-79
2023/10/21 00:09:31;;;;;;;;;;;20.30;89.60;;;;;;5026221;28;43409;-79
2023/10/21 00:11:56;;;;;;;;;;;20.20;89.60;;;;;;5040968;28;42880;-79
2023/10/21 00:14:22;;;;;;;;;;;20.20;89.60;;;;;;5047173;28;43525;-80
2023/10/21 00:16:49;;;;;;;;;;;20.40;89.30;;;;;;5047075;28;42972;-78
2023/10/21 00:19:15;;;;;;;;;;;20.20;89.10;;;;;;5046392;28;43533;-79
2023/10/21 00:21:41;;;;;;;;;;;20.20;89.10;;;;;;5046660;28;42871;-80
2023/10/21 00:24:07;;;;;;;;;;;20.40;89.70;;;;;;5046478;28;42979;-79
2023/10/21 00:26:50;;;;;;;;;;;20.30;89.30;;;;;;5047024;28;43199;-79
2023/10/21 00:29:16;;;;;;;;;;;20.20;87.40;;;;;;5042482;28;43004;-79
2023/10/21 00:31:43;;;;;;;;;;;20.30;89.70;;;;;;5026406;28;43020;-79
2023/10/21 00:34:09;;;;;;;;;;;20.20;89.00;;;;;;5026307;28;44266;-78
2023/10/21 00:36:34;;;;;;;;;;;20.20;89.60;;;;;;5026475;28;42886;-78
2023/10/21 00:39:01;;;;;;;;;;;20.30;89.50;;;;;;5026011;28;43484;-78
2023/10/21 00:41:27;;;;;;;;;;;20.20;89.10;;;;;;5026415;28;43008;-79
2023/10/21 00:43:52;;;;;;;;;;;20.20;89.50;;;;;;5024870;28;42798;-79
2023/10/21 00:46:18;;;;;;;;;;;20.30;89.80;;;;;;5008591;28;43000;-78
2023/10/21 00:48:47;;;;;;;;;;;20.20;89.20;;;;;;5026187;28;43600;-80
2023/10/21 00:51:12;;;;;;;;;;;20.20;89.70;;;;;;5022833;28;43198;-79
2023/10/21 00:53:38;;;;;;;;;;;20.20;89.70;;;;;;5004095;28;42958;-79
2023/10/21 00:56:05;;;;;;;;;;;20.20;89.60;;;;;;5004635;28;43088;-79
2023/10/21 00:58:31;;;;;;;;;;;20.30;89.40;;;;;;4986934;28;42872;-79
2023/10/21 01:01:01;;;;;;;;;;;20.50;89.80;;;;;;5016662;28;42934;-79
2023/10/21 01:03:27;;;;;;;;;;;20.10;89.70;;;;;;5024296;28;43113;-79
2023/10/21 01:05:53;;;;;;;;;;;20.30;89.80;;;;;;5024724;28;42976;-79
2023/10/21 01:08:19;;;;;;;;;;;20.30;89.30;;;;;;5024235;28;42921;-79
2023/10/21 01:10:44;;;;;;;;;;;20.20;89.70;;;;;;5025438;28;42771;-79
2023/10/21 01:13:10;;;;;;;;;;;20.20;89.70;;;;;;5025685;28;42959;-79
2023/10/21 01:15:36;;;;;;;;;;;20.20;89.20;;;;;;5026185;28;42976;-78
2023/10/21 01:18:02;;;;;;;;;;;20.30;89.20;;;;;;5025884;28;43749;-79
2023/10/21 01:20:27;;;;;;;;;;;20.20;89.00;;;;;;5025688;28;43037;-79
2023/10/21 01:22:55;;;;;;;;;;;20.20;89.10;;;;;;5025430;28;43482;-80
2023/10/21 01:25:20;;;;;;;;;;;20.10;89.60;;;;;;5007456;28;43193;-79
2023/10/21 01:27:46;;;;;;;;;;;20.20;89.20;;;;;;5026113;28;42901;-78
2023/10/21 01:30:11;;;;;;;;;;;20.30;89.60;;;;;;5025908;28;43021;-79
2023/10/21 01:32:37;;;;;;;;;;;20.30;89.10;;;;;;5025437;28;43665;-80
2023/10/21 01:35:02;;;;;;;;;;;20.30;89.20;;;;;;5026004;28;42820;-80
2023/10/21 01:37:28;;;;;;;;;;;20.20;89.30;;;;;;5025489;28;43436;-78
2023/10/21 01:39:54;;;;;;;;;;;20.20;89.20;;;;;;5025601;28;42932;-78
2023/10/21 01:42:20;;;;;;;;;;;20.20;89.00;;;;;;5024856;28;42852;-79
2023/10/21 01:44:59;;;;;;;;;;;20.30;89.20;;;;;;5024772;28;42997;-80
2023/10/21 01:47:26;;;;;;;;;;;20.20;88.90;;;;;;5414913;22;43426;-79
2023/10/21 01:49:52;;;;;;;;;;;20.30;89.00;;;;;;5066105;28;42869;-80
2023/10/21 01:52:17;;;;;;;;;;;20.30;89.60;;;;;;5065610;28;43622;-79
2023/10/21 01:54:43;;;;;;;;;;;20.20;89.10;;;;;;5047062;28;42851;-79
2023/10/21 01:57:09;;;;;;;;;;;20.20;89.60;;;;;;5062983;28;43224;-79
2023/10/21 01:59:41;;;;;;;;;;;20.10;89.30;;;;;;5065206;28;43039;-80
2023/10/21 02:02:06;;;;;;;;;;;20.10;87.20;;;;;;5065420;28;43452;-80
2023/10/21 02:04:32;;;;;;;;;;;20.20;89.60;;;;;;5065056;28;42711;-80
2023/10/21 02:06:58;;;;;;;;;;;20.20;89.00;;;;;;5064580;28;43616;-79
2023/10/21 02:09:23;;;;;;;;;;;20.20;89.00;;;;;;5065055;28;43018;-79
2023/10/21 02:11:49;;;;;;;;;;;20.20;89.00;;;;;;5064948;28;43510;-79
2023/10/21 02:14:14;;;;;;;;;;;20.50;89.50;;;;;;5065824;28;42943;-79
2023/10/21 02:16:40;;;;;;;;;;;20.30;89.00;;;;;;5065525;28;42929;-79
2023/10/21 02:19:05;;;;;;;;;;;20.20;89.30;;;;;;5065443;28;43010;-79
2023/10/21 02:21:31;;;;;;;;;;;20.30;89.00;;;;;;5069582;28;42982;-79
2023/10/21 02:23:56;;;;;;;;;;;20.20;89.30;;;;;;5072765;28;42822;-78
2023/10/21 02:26:22;;;;;;;;;;;20.10;89.30;;;;;;5072910;28;42949;-79
2023/10/21 02:28:47;;;;;;;;;;;20.20;88.90;;;;;;5069625;28;42774;-79
2023/10/21 02:31:13;;;;;;;;;;;20.20;88.90;;;;;;5065413;28;43141;-80
2023/10/21 02:33:39;;;;;;;;;;;20.30;89.40;;;;;;5065710;28;42964;-79
2023/10/21 02:36:05;;;;;;;;;;;20.20;89.30;;;;;;5064998;28;42927;-80
2023/10/21 02:38:30;;;;;;;;;;;20.10;89.00;;;;;;5064341;28;42896;-81
2023/10/21 02:40:56;;;;;;;;;;;20.10;89.10;;;;;;5063532;28;42919;-79
2023/10/21 02:43:22;;;;;;;;;;;20.20;88.90;;;;;;5065075;28;43018;-80
2023/10/21 02:45:48;;;;;;;;;;;20.30;89.00;;;;;;5065162;28;44344;-79
2023/10/21 02:48:14;;;;;;;;;;;20.20;88.70;;;;;;5064160;28;42856;-79
2023/10/21 02:50:39;;;;;;;;;;;20.30;89.40;;;;;;5064951;28;43801;-79
2023/10/21 02:53:05;;;;;;;;;;;20.20;88.90;;;;;;5065140;28;42959;-79
2023/10/21 02:55:30;;;;;;;;;;;20.30;88.80;;;;;;5174973;22;42989;-79
2023/10/21 02:57:56;;;;;;;;;;;20.30;88.90;;;;;;5062808;28;43560;-79
2023/10/21 03:02:57;;;;;;;;;;;20.40;88.30;;;;;;5437936;22;1862482;-79
2023/10/21 03:05:23;;;;;;;;;;;20.40;88.60;;;;;;5064169;28;42853;-79
2023/10/21 03:07:48;;;;;;;;;;;20.20;88.80;;;;;;5067763;28;42988;-79
2023/10/21 03:10:14;;;;;;;;;;;20.30;89.30;;;;;;5068088;28;42744;-79
2023/10/21 03:12:39;;;;;;;;;;;20.30;88.90;;;;;;5049080;28;42867;-78
2023/10/21 03:15:06;;;;;;;;;;;20.40;89.00;;;;;;5068272;28;43394;-79
2023/10/21 03:17:32;;;;;;;;;;;20.20;88.40;;;;;;5065484;28;42971;-79
2023/10/21 03:19:58;;;;;;;;;;;20.20;89.30;;;;;;5067842;28;42975;-80
2023/10/21 03:22:25;;;;;;;;;;;20.20;88.80;;;;;;5066475;28;43118;-79
2023/10/21 03:24:51;;;;;;;;;;;20.10;88.70;;;;;;5067479;28;43809;-80
2023/10/21 03:27:16;;;;;;;;;;;20.20;88.80;;;;;;5067575;28;42943;-80
2023/10/21 03:29:42;;;;;;;;;;;20.30;88.90;;;;;;5067173;28;43636;-79
2023/10/21 03:32:09;;;;;;;;;;;20.40;88.90;;;;;;5067328;28;42992;-80
2023/10/21 03:34:35;;;;;;;;;;;20.40;89.60;;;;;;5067148;28;43395;-80
2023/10/21 03:37:01;;;;;;;;;;;20.20;88.80;;;;;;5065736;28;43059;-79
2023/10/21 03:39:26;;;;;;;;;;;20.30;89.30;;;;;;5067409;28;43285;-80
2023/10/21 03:41:52;;;;;;;;;;;20.20;89.10;;;;;;5066967;28;43031;-79
2023/10/21 03:44:18;;;;;;;;;;;20.20;89.30;;;;;;5066864;28;42944;-80
2023/10/21 03:46:44;;;;;;;;;;;20.20;89.10;;;;;;5067520;28;42900;-80
2023/10/21 03:49:09;;;;;;;;;;;20.30;89.20;;;;;;5049326;28;43538;-79
2023/10/21 03:51:35;;;;;;;;;;;20.20;88.70;;;;;;5067436;28;42984;-79
2023/10/21 03:54:01;;;;;;;;;;;20.20;89.00;;;;;;5067852;28;43510;-79
2023/10/21 03:56:27;;;;;;;;;;;20.30;88.80;;;;;;5067786;28;42932;-79
2023/10/21 03:58:53;;;;;;;;;;;20.30;89.40;;;;;;5067255;28;43663;-79
2023/10/21 04:01:20;;;;;;;;;;;20.30;89.30;;;;;;5067381;28;42951;-79
2023/10/21 04:03:46;;;;;;;;;;;20.20;88.60;;;;;;5067076;28;43494;-79
2023/10/21 04:06:13;;;;;;;;;;;20.00;88.90;;;;;;5067287;28;42977;-79
2023/10/21 04:08:39;;;;;;;;;;;20.20;88.70;;;;;;5065361;28;42907;-79
2023/10/21 04:11:05;;;;;;;;;;;20.30;89.20;;;;;;5048404;28;42986;-78
2023/10/21 04:13:31;;;;;;;;;;;20.20;89.20;;;;;;5065438;28;43003;-80
2023/10/21 04:15:57;;;;;;;;;;;20.20;88.60;;;;;;5067326;28;42978;-80
2023/10/21 04:18:23;;;;;;;;;;;20.30;89.30;;;;;;5065986;28;43866;-79
2023/10/21 04:20:48;;;;;;;;;;;20.30;89.00;;;;;;5065409;28;43125;-79
2023/10/21 04:23:14;;;;;;;;;;;20.20;89.10;;;;;;5066978;28;42852;-79
2023/10/21 04:25:39;;;;;;;;;;;20.20;88.70;;;;;;5067221;28;42880;-79
2023/10/21 04:28:05;;;;;;;;;;;20.10;88.70;;;;;;5065563;28;43451;-79
2023/10/21 04:30:30;;;;;;;;;;;20.20;88.80;;;;;;5065361;28;42985;-79
2023/10/21 04:32:56;;;;;;;;;;;20.30;88.80;;;;;;5048246;28;44907;-79
2023/10/21 04:35:21;;;;;;;;;;;20.10;88.60;;;;;;5066933;28;42987;-79
2023/10/21 04:37:47;;;;;;;;;;;20.10;89.20;;;;;;5066841;28;42947;-79
2023/10/21 04:40:13;;;;;;;;;;;20.20;89.10;;;;;;5064983;28;43288;-79
2023/10/21 04:42:39;;;;;;;;;;;20.10;88.80;;;;;;5066864;28;42841;-79
2023/10/21 04:45:06;;;;;;;;;;;20.20;88.70;;;;;;5064670;28;43244;-79
2023/10/21 04:47:31;;;;;;;;;;;20.20;88.60;;;;;;5066868;28;42811;-78
2023/10/21 04:49:57;;;;;;;;;;;20.30;88.80;;;;;;5069246;28;42924;-78
2023/10/21 04:52:22;;;;;;;;;;;20.20;88.70;;;;;;5071307;28;43802;-78
2023/10/21 04:54:48;;;;;;;;;;;20.00;89.10;;;;;;5074776;28;42793;-80
2023/10/21 04:57:14;;;;;;;;;;;20.40;89.40;;;;;;5070470;28;42980;-79
2023/10/21 04:59:39;;;;;;;;;;;20.10;89.10;;;;;;5067095;28;42845;-79
2023/10/21 05:02:05;;;;;;;;;;;20.20;88.70;;;;;;5064696;28;43008;-80
2023/10/21 05:04:31;;;;;;;;;;;20.10;89.00;;;;;;5066633;28;42936;-79
2023/10/21 05:06:56;;;;;;;;;;;20.20;89.10;;;;;;5065798;28;43019;-79
2023/10/21 05:09:22;;;;;;;;;;;20.20;89.20;;;;;;5065757;28;42964;-80
2023/10/21 05:11:47;;;;;;;;;;;20.30;89.40;;;;;;5065458;28;43825;-80
2023/10/21 05:14:13;;;;;;;;;;;20.10;88.60;;;;;;5064406;28;42986;-80
2023/10/21 05:16:39;;;;;;;;;;;20.20;88.60;;;;;;5065183;28;42919;-79
2023/10/21 05:19:07;;;;;;;;;;;20.20;88.80;;;;;;5065631;28;42963;-80
2023/10/21 05:21:33;;;;;;;;;;;20.20;86.40;;;;;;5063461;28;42947;-79
2023/10/21 05:23:58;;;;;;;;;;;20.20;89.10;;;;;;5063133;28;42934;-79
2023/10/21 05:26:25;;;;;;;;;;;20.10;89.00;;;;;;5065858;28;43545;-79
2023/10/21 05:28:51;;;;;;;;;;;20.30;88.60;;;;;;5065397;28;42860;-79
2023/10/21 05:31:16;;;;;;;;;;;20.10;89.00;;;;;;5059546;28;43628;-79
2023/10/21 05:33:42;;;;;;;;;;;20.20;88.60;;;;;;5065466;28;42841;-78
2023/10/21 05:36:08;;;;;;;;;;;20.20;89.00;;;;;;5065307;28;42939;-79
2023/10/21 05:38:33;;;;;;;;;;;20.30;89.10;;;;;;5047722;28;42972;-79
2023/10/21 05:40:59;;;;;;;;;;;20.20;88.60;;;;;;5065700;28;43802;-79
2023/10/21 05:43:25;;;;;;;;;;;20.20;89.00;;;;;;5064139;28;42953;-79
2023/10/21 05:45:50;;;;;;;;;;;20.20;88.70;;;;;;5046628;28;44683;-78
2023/10/21 05:48:16;;;;;;;;;;;20.20;88.60;;;;;;5043979;28;43066;-79
2023/10/21 05:50:41;;;;;;;;;;;20.20;88.70;;;;;;5057226;28;42937;-79
2023/10/21 05:53:07;;;;;;;;;;;20.10;88.60;;;;;;5054055;28;42904;-79
2023/10/21 05:55:33;;;;;;;;;;;20.10;89.00;;;;;;5047813;28;43534;-80
2023/10/21 05:57:58;;;;;;;;;;;20.10;89.00;;;;;;5064860;28;42998;-78
2023/10/21 06:00:25;;;;;;;;;;;20.20;89.10;;;;;;5065856;28;42958;-79
2023/10/21 06:02:51;;;;;;;;;;;20.20;88.70;;;;;;5046392;28;42879;-79
2023/10/21 06:05:16;;;;;;;;;;;20.10;89.10;;;;;;5065305;28;43005;-79
2023/10/21 06:07:42;;;;;;;;;;;20.30;89.30;;;;;;5065340;28;42983;-79
2023/10/21 06:10:08;;;;;;;;;;;20.20;88.80;;;;;;5056040;28;44849;-79
2023/10/21 06:12:33;;;;;;;;;;;20.30;88.60;;;;;;5062167;28;43115;-78
2023/10/21 06:14:59;;;;;;;;;;;20.30;89.10;;;;;;5064739;28;43369;-78
2023/10/21 06:17:25;;;;;;;;;;;20.20;89.20;;;;;;5063858;28;43007;-79
2023/10/21 06:19:51;;;;;;;;;;;20.20;89.10;;;;;;5061553;28;42943;-79
2023/10/21 06:22:16;;;;;;;;;;;20.20;88.70;;;;;;5052610;28;43120;-79
2023/10/21 06:24:42;;;;;;;;;;;20.20;89.10;;;;;;5063309;28;43041;-78
2023/10/21 06:27:07;;;;;;;;;;;20.10;88.90;;;;;;5063923;28;42927;-79
2023/10/21 06:29:33;;;;;;;;;;;20.20;88.60;;;;;;5065304;28;43287;-79
2023/10/21 06:31:59;;;;;;;;;;;20.40;89.30;;;;;;5064182;28;42974;-78
2023/10/21 06:34:25;;;;;;;;;;;20.20;88.70;;;;;;5062694;28;43495;-78
2023/10/21 06:36:50;;;;;;;;;;;20.20;88.60;;;;;;5058921;28;42848;-79
2023/10/21 06:39:16;;;;;;;;;;;20.40;88.70;;;;;;5064998;28;44240;-79
2023/10/21 06:41:42;;;;;;;;;;;20.10;88.90;;;;;;5047777;28;43047;-79
2023/10/21 06:44:08;;;;;;;;;;;20.20;88.90;;;;;;5055853;28;43273;-78
2023/10/21 06:46:33;;;;;;;;;;;20.30;88.70;;;;;;5061153;28;43037;-78
2023/10/21 06:48:59;;;;;;;;;;;20.20;89.20;;;;;;5055262;28;43356;-79
2023/10/21 06:51:24;;;;;;;;;;;20.40;88.60;;;;;;5058522;28;43019;-79
2023/10/21 06:53:50;;;;;;;;;;;20.20;88.60;;;;;;5063793;28;42881;-79
2023/10/21 06:56:16;;;;;;;;;;;20.30;89.00;;;;;;5065731;28;42968;-78
2023/10/21 06:58:44;;;;;;;;;;;20.10;88.50;;;;;;5045190;28;43440;-78
2023/10/21 07:01:09;;;;;;;;;;;20.20;88.70;;;;;;5055319;28;43056;-78
2023/10/21 07:03:34;;;;;;;;;;;19.70;88.30;;;;;;5067042;28;42999;-78
2023/10/21 07:06:00;;;;;;;;;;;20.30;88.80;;;;;;5067599;28;43343;-77
2023/10/21 07:08:26;;;;;;;;;;;20.30;89.00;;;;;;5064678;28;43558;-78
2023/10/21 07:10:53;;;;;;;;;;;20.30;88.90;;;;;;5052239;28;43286;-77
2023/10/21 07:13:19;;;;;;;;;;;20.20;89.20;;;;;;5050427;28;43776;-77
2023/10/21 07:15:44;;;;;;;;;;;20.20;89.70;;;;;;5054377;28;42900;-77
2023/10/21 07:18:10;;;;;;;;;;;20.20;89.80;;;;;;5050022;28;43565;-77
2023/10/21 07:20:36;;;;;;;;;;;21.20;90.10;;;;;;5057165;28;42783;-78
2023/10/21 07:23:02;;;;;;;;;;;20.20;89.50;;;;;;5072363;28;43066;-78
2023/10/21 07:25:28;;;;;;;;;;;20.20;90.00;;;;;;5053683;28;42955;-79
2023/10/21 07:27:53;;;;;;;;;;;20.30;90.00;;;;;;5068584;28;43576;-78
2023/10/21 07:30:19;;;;;;;;;;;20.30;90.00;;;;;;5061436;28;42818;-78
2023/10/21 07:32:44;;;;;;;;;;;20.20;90.10;;;;;;5066044;28;43660;-79
2023/10/21 07:35:10;;;;;;;;;;;20.20;90.10;;;;;;5382063;22;43007;-79
2023/10/21 07:37:35;;;;;;;;;;;20.40;90.00;;;;;;5418648;22;44196;-77
2023/10/21 07:40:02;;;;;;;;;;;20.20;90.10;;;;;;5048209;28;43010;-79
2023/10/21 07:42:27;;;;;;;;;;;20.30;90.10;;;;;;5046674;28;43550;-78
2023/10/21 07:44:53;;;;;;;;;;;20.30;90.30;;;;;;5047323;28;43021;-79
2023/10/21 07:47:19;;;;;;;;;;;20.10;90.40;;;;;;5029465;28;43681;-78
2023/10/21 07:49:44;;;;;;;;;;;20.10;90.50;;;;;;5047689;28;42865;-78
2023/10/21 07:52:10;;;;;;;;;;;20.20;90.40;;;;;;5028896;28;43163;-78
2023/10/21 07:54:37;;;;;;;;;;;20.30;90.70;;;;;;5047441;28;42894;-79
2023/10/21 07:57:03;;;;;;;;;;;20.30;91.00;;;;;;5047806;28;43621;-81
2023/10/21 07:59:29;;;;;;;;;;;20.30;91.00;;;;;;5043864;28;42951;-75
2023/10/21 08:01:55;;;;;;;;;;;20.20;90.80;;;;;;5036454;28;42865;-78
2023/10/21 08:04:20;;;;;;;;;;;20.10;90.40;;;;;;5027952;28;42949;-82
2023/10/21 08:06:46;;;;;;;;;;;20.30;90.60;;;;;;5043774;28;42936;-79
2023/10/21 08:09:15;;;;;;;;;;;20.20;91.50;;;;;;5046957;28;42979;-82
2023/10/21 08:11:44;;;;;;;;;;;20.20;91.60;;;;;;5027834;28;44767;-82
2023/10/21 08:14:12;;;;;;;;;;;20.30;92.20;;;;;;5046040;28;43085;-78
2023/10/21 08:16:38;;;;;;;;;;;20.30;91.90;;;;;;5261391;22;43016;-79
2023/10/21 08:19:04;;;;;;;;;;;20.30;92.10;;;;;;5022163;28;42889;-81
2023/10/21 08:21:30;;;;;;;;;;;20.30;92.10;;;;;;5026543;28;43372;-79
2023/10/21 08:23:57;;;;;;;;;;;20.40;92.10;;;;;;5026785;28;42870;-78
2023/10/21 08:26:28;;;;;;;;;;;20.40;92.10;;;;;;5026145;28;42858;-82
2023/10/21 08:28:54;;;;;;;;;;;20.50;91.40;;;;;;5026732;28;42952;-81
2023/10/21 08:31:20;;;;;;;;;;;20.40;92.20;;;;;;5036558;28;43492;-79
2023/10/21 08:33:45;;;;;;;;;;;20.30;92.70;;;;;;5047111;28;42829;-80
2023/10/21 08:36:18;;;;;;;;;;;20.20;92.80;;;;;;5046402;28;42763;-80
2023/10/21 08:38:44;;;;;;;;;;;20.20;91.90;;;;;;5046674;28;43003;-79
2023/10/21 08:41:11;;;;;;;;;;;20.30;93.00;;;;;;5046802;28;42877;-81
2023/10/21 08:43:37;;;;;;;;;;;20.40;92.80;;;;;;5046891;28;42884;-80
2023/10/21 08:46:04;;;;;;;;;;;20.50;92.40;;;;;;5046443;28;42825;-81
2023/10/21 08:48:30;;;;;;;;;;;20.60;92.60;;;;;;5046731;28;42919;-80
2023/10/21 08:50:56;;;;;;;;;;;20.70;93.00;;;;;;5046675;28;43697;-80
2023/10/21 08:53:24;;;;;;;;;;;20.30;93.00;;;;;;5671813;22;43942;-81
2023/10/21 08:55:49;;;;;;;;;;;20.40;93.20;;;;;;5026211;28;42965;-80
2023/10/21 08:58:15;;;;;;;;;;;20.20;92.70;;;;;;5026352;28;42902;-80
2023/10/21 09:00:41;;;;;;;;;;;20.30;93.40;;;;;;5026223;28;42851;-80
2023/10/21 09:03:08;;;;;;;;;;;20.30;93.90;;;;;;5026107;28;42987;-83
2023/10/21 09:05:36;;;;;;;;;;;20.20;93.90;;;;;;5025415;28;42938;-81
2023/10/21 09:08:02;;;;;;;;;;;20.30;93.70;;;;;;5025108;28;42927;-84
2023/10/21 09:10:30;;;;;;;;;;;20.10;93.40;;;;;;5025614;28;42937;-83
2023/10/21 09:12:55;;;;;;;;;;;20.30;93.80;;;;;;5026298;28;42909;-81
2023/10/21 09:15:34;;;;;;;;;;;20.00;94.40;;;;;;5019133;28;43524;-82
2023/10/21 09:18:07;;;;;;;;;;;20.20;94.10;;;;;;5045146;28;42910;-81
2023/10/21 09:20:36;;;;;;;;;;;20.20;94.20;;;;;;5045256;28;44011;-81
2023/10/21 09:23:02;;;;;;;;;;;20.20;94.10;;;;;;5044672;28;42939;-82
2023/10/21 09:25:28;;;;;;;;;;;20.10;93.80;;;;;;5045282;28;43447;-80
2023/10/21 09:27:55;;;;;;;;;;;20.20;93.70;;;;;;5045147;28;43044;-83
2023/10/21 09:30:21;;;;;;;;;;;20.10;93.90;;;;;;5043225;28;43292;-80
2023/10/21 09:32:47;;;;;;;;;;;20.20;93.90;;;;;;5016320;28;43049;-78
2023/10/21 09:35:14;;;;;;;;;;;20.10;93.70;;;;;;5005115;28;43421;-82
2023/10/21 09:37:40;;;;;;;;;;;20.00;93.70;;;;;;5005314;28;42907;-80
2023/10/21 09:40:06;;;;;;;;;;;20.20;93.60;;;;;;5023964;28;42945;-81
2023/10/21 09:42:41;;;;;;;;;;;20.00;93.50;;;;;;5045002;28;42987;-80
2023/10/21 09:45:07;;;;;;;;;;;20.10;93.00;;;;;;5044250;28;42895;-79
2023/10/21 09:47:36;;;;;;;;;;;20.20;94.00;;;;;;5049610;28;42765;-79
2023/10/21 09:50:05;;;;;;;;;;;20.30;94.30;;;;;;5051409;28;42994;-81
2023/10/21 09:52:34;;;;;;;;;;;20.10;94.10;;;;;;5029453;28;42755;-83
2023/10/21 09:55:03;;;;;;;;;;;20.10;93.90;;;;;;5025519;28;42973;-82
2023/10/21 09:57:29;;;;;;;;;;;20.00;92.90;;;;;;5025724;28;42938;-81
2023/10/21 09:59:56;;;;;;;;;;;20.00;93.80;;;;;;5025254;28;43823;-80
2023/10/21 10:02:22;;;;;;;;;;;20.10;93.90;;;;;;5013464;28;42987;-83
2023/10/21 10:04:49;;;;;;;;;;;20.00;93.50;;;;;;5014207;28;43490;-81
2023/10/21 10:07:15;;;;;;;;;;;20.20;93.30;;;;;;5018566;28;43054;-85
2023/10/21 10:09:42;;;;;;;;;;;20.20;93.40;;;;;;5018037;28;43086;-84
2023/10/21 10:12:34;;;;;;;;;;;20.20;93.40;;;;;;5020194;28;43063;-84
2023/10/21 10:15:00;;;;;;;;;;;20.50;92.60;;;;;;5017870;28;43036;-83
2023/10/21 10:17:44;;;;;;;;;;;20.40;93.30;;;;;;5020156;28;44329;-83
2023/10/21 10:20:21;;;;;;;;;;;20.30;92.40;;;;;;5018112;28;42996;-83
2023/10/21 10:22:55;;;;;;;;;;;20.20;93.40;;;;;;5027146;28;43052;-83
2023/10/21 10:25:42;;;;;;;;;;;20.20;92.30;;;;;;5023557;28;43587;-82
2023/10/21 10:28:08;;;;;;;;;;;20.20;92.10;;;;;;5024344;28;42837;-83
2023/10/21 10:30:37;;;;;;;;;;;20.30;93.40;;;;;;5024092;28;43387;-83
2023/10/21 10:33:06;;;;;;;;;;;20.50;93.30;;;;;;5023885;28;43293;-81
2023/10/21 10:35:37;;;;;;;;;;;20.30;92.70;;;;;;5023241;28;42936;-82
2023/10/21 10:38:16;;;;;;;;;;;20.10;91.60;;;;;;5023386;28;42983;-80
2023/10/21 10:40:43;;;;;;;;;;;20.20;92.40;;;;;;5024227;28;42993;-83
2023/10/21 10:43:10;;;;;;;;;;;20.10;92.30;;;;;;5024364;28;43028;-88
2023/10/21 10:55:04;;;;;;;;;;;20.20;91.70;;;;;;5053810;22;43004;-84
2023/10/21 11:35:58;;;;;;;;;;;20.20;91.40;;;;;;5074754;22;43365;-82
2023/10/21 11:49:43;;;;;;;;;;;20.30;91.40;;;;;;5044558;28;44805;-82
2023/10/21 11:52:09;;;;;;;;;;;20.20;91.80;;;;;;5044357;28;43074;-81
2023/10/21 11:55:13;;;;;;;;;;;20.30;91.60;;;;;;5046422;28;43002;-81
2023/10/21 12:05:53;;;;;;;;;;;;;;;;;;5063615;28;42878;-81
2023/10/21 12:39:38;;;;;;;;;;;20.20;93.30;;;;;;5064451;28;43265;-83
2023/10/21 12:44:57;;;;;;;;;;;20.40;93.40;;;;;;5049997;28;42939;-81
2023/10/21 12:47:24;;;;;;;;;;;20.20;93.10;;;;;;5045502;28;43219;-80
2023/10/21 12:49:50;;;;;;;;;;;20.20;93.20;;;;;;5047229;28;43563;-81
2023/10/21 12:52:18;;;;;;;;;;;20.10;93.30;;;;;;5064864;28;43050;-78
2023/10/21 12:54:43;;;;;;;;;;;20.30;93.30;;;;;;5053918;28;43011;-77
2023/10/21 12:57:14;;;;;;;;;;;20.30;93.40;;;;;;5047042;28;43034;-79
2023/10/21 12:59:40;;;;;;;;;;;20.20;93.30;;;;;;5035829;28;43525;-82
2023/10/21 13:02:08;;;;;;;;;;;20.30;93.30;;;;;;5046573;28;42956;-83
2023/10/21 13:04:35;;;;;;;;;;;20.30;93.60;;;;;;5062326;28;43459;-83
2023/10/21 13:07:04;;;;;;;;;;;20.20;93.50;;;;;;5063880;28;42916;-78
2023/10/21 13:09:33;;;;;;;;;;;20.40;93.60;;;;;;5036665;28;44890;-83
2023/10/21 13:11:58;;;;;;;;;;;20.30;93.60;;;;;;5047728;28;43070;-81
2023/10/21 13:14:25;;;;;;;;;;;20.30;93.50;;;;;;5053606;28;43324;-84
2023/10/21 13:16:52;;;;;;;;;;;20.40;93.70;;;;;;5043486;28;43299;-82
2023/10/21 13:19:17;;;;;;;;;;;20.40;93.80;;;;;;5054227;28;43063;-82
2023/10/21 13:21:43;;;;;;;;;;;20.50;94.10;;;;;;5060901;28;42984;-80
2023/10/21 13:24:09;;;;;;;;;;;;;;;;;;5053846;28;43058;-82
2023/10/21 13:26:35;;;;;;;;;;;20.20;94.00;;;;;;5044750;28;42986;-83
2023/10/21 13:29:00;;;;;;;;;;;20.30;93.90;;;;;;5044586;28;43854;-82
2023/10/21 13:31:26;;;;;;;;;;;20.30;94.30;;;;;;5034464;28;42920;-83
2023/10/21 13:33:51;;;;;;;;;;;20.30;94.50;;;;;;5056512;28;43697;-83
2023/10/21 13:36:17;;;;;;;;;;;20.30;94.40;;;;;;5046638;28;43090;-83
2023/10/21 13:38:42;;;;;;;;;;;20.40;94.30;;;;;;5061395;28;43565;-81
2023/10/21 13:41:08;;;;;;;;;;;20.30;94.20;;;;;;5042924;28;44187;-80
2023/10/21 13:43:34;;;;;;;;;;;20.30;94.20;;;;;;5042618;28;43355;-81
2023/10/21 13:46:05;;;;;;;;;;;20.30;94.10;;;;;;5033146;28;42899;-80
2023/10/21 13:48:33;;;;;;;;;;;20.10;93.00;;;;;;5046157;28;44303;-81
2023/10/21 13:50:59;;;;;;;;;;;20.40;94.30;;;;;;5063784;28;43631;-81
2023/10/21 13:53:26;;;;;;;;;;;20.90;94.40;;;;;;5058600;28;42927;-81
2023/10/21 13:55:53;;;;;;;;;;;20.20;94.50;;;;;;5044294;28;42978;-80
2023/10/21 13:58:20;;;;;;;;;;;20.20;94.50;;;;;;5044220;28;43013;-81
2023/10/21 14:00:45;;;;;;;;;;;20.40;94.50;;;;;;5044067;28;42908;-80
2023/10/21 14:03:13;;;;;;;;;;;20.20;94.40;;;;;;5044365;28;43429;-79
2023/10/21 14:05:41;;;;;;;;;;;20.40;94.40;;;;;;5044299;28;43048;-81
2023/10/21 14:08:08;;;;;;;;;;;20.30;93.20;;;;;;5044581;28;42917;-80
2023/10/21 14:10:36;;;;;;;;;;;20.30;94.40;;;;;;5026070;28;43053;-80
2023/10/21 14:13:02;;;;;;;;;;;20.40;94.60;;;;;;5044731;28;42932;-80
2023/10/21 14:15:28;;;;;;;;;;;20.30;94.00;;;;;;5155521;22;43022;-79
2023/10/21 14:17:53;;;;;;;;;;;20.40;94.10;;;;;;5044241;28;42758;-79
2023/10/21 14:20:19;;;;;;;;;;;20.40;94.20;;;;;;5044665;28;42937;-80
2023/10/21 14:22:45;;;;;;;;;;;20.40;94.20;;;;;;5026056;28;45448;-80
2023/10/21 14:25:10;;;;;;;;;;;20.20;94.00;;;;;;5026117;28;42983;-79
2023/10/21 14:27:37;;;;;;;;;;;20.30;94.20;;;;;;5044297;28;43490;-81
2023/10/21 14:30:09;;;;;;;;;;;20.40;94.30;;;;;;5044295;28;42775;-80
2023/10/21 14:32:38;;;;;;;;;;;20.30;94.30;;;;;;5044197;28;42975;-80
2023/10/21 14:35:07;;;;;;;;;;;20.40;94.50;;;;;;5044623;28;42977;-80
2023/10/21 14:37:36;;;;;;;;;;;20.40;94.20;;;;;;5044207;28;43449;-80
2023/10/21 14:40:06;;;;;;;;;;;20.40;93.20;;;;;;5044201;28;42872;-81
2023/10/21 14:42:33;;;;;;;;;;;20.20;93.10;;;;;;5043998;28;44443;-80
2023/10/21 14:44:58;;;;;;;;;;;20.50;94.20;;;;;;5044655;28;42967;-81
2023/10/21 14:47:26;;;;;;;;;;;20.40;94.30;;;;;;5044507;28;42961;-81
2023/10/21 14:49:53;;;;;;;;;;;20.30;94.20;;;;;;5044509;28;42964;-81
2023/10/21 14:52:19;;;;;;;;;;;20.40;94.20;;;;;;5044489;28;44572;-79
2023/10/21 14:54:45;;;;;;;;;;;20.30;94.10;;;;;;5048920;28;43362;-79
2023/10/21 14:57:10;;;;;;;;;;;20.40;94.10;;;;;;5049440;28;42881;-79
2023/10/21 14:59:37;;;;;;;;;;;;;;;;;;5040837;28;42936;-79
2023/10/21 15:02:03;;;;;;;;;;;20.50;93.90;;;;;;5039765;28;44608;-79
2023/10/21 15:04:29;;;;;;;;;;;20.40;93.80;;;;;;5032623;28;42919;-78
2023/10/21 15:06:54;;;;;;;;;;;20.50;93.70;;;;;;5489162;22;44093;-79
2023/10/21 15:09:21;;;;;;;;;;;20.50;93.30;;;;;;5047181;28;43003;-79
2023/10/21 15:11:47;;;;;;;;;;;20.50;93.30;;;;;;5057665;28;43543;-79
2023/10/21 15:14:12;;;;;;;;;;;20.50;93.10;;;;;;5061393;28;43152;-78
2023/10/21 15:16:37;;;;;;;;;;;20.40;93.20;;;;;;5067620;28;43641;-78
2023/10/21 15:19:04;;;;;;;;;;;20.60;93.10;;;;;;5067172;28;42980;-78
2023/10/21 15:21:30;;;;;;;;;;;20.50;93.10;;;;;;5067856;28;43586;-78
2023/10/21 15:23:56;;;;;;;;;;;;;;;;;;5067831;28;43028;-78
2023/10/21 15:26:21;;;;;;;;;;;20.70;92.70;;;;;;5066021;28;43741;-78
2023/10/21 15:28:47;;;;;;;;;;;20.60;92.30;;;;;;5067779;28;42931;-78
2023/10/21 15:31:12;;;;;;;;;;;20.60;91.80;;;;;;5067742;28;43476;-78
2023/10/21 15:33:39;;;;;;;;;;;20.50;91.40;;;;;;5050906;28;43170;-80
2023/10/21 15:36:05;;;;;;;;;;;20.50;90.90;;;;;;5066881;28;43545;-78
2023/10/21 15:38:31;;;;;;;;;;;20.40;91.40;;;;;;5057952;28;42974;-77
2023/10/21 15:40:56;;;;;;;;;;;20.60;91.50;;;;;;5064881;28;43091;-78
2023/10/21 15:43:22;;;;;;;;;;;20.70;91.40;;;;;;5046404;28;43094;-78
2023/10/21 15:45:47;;;;;;;;;;;20.90;91.30;;;;;;5066772;28;42861;-78
2023/10/21 15:48:13;;;;;;;;;;;20.90;91.20;;;;;;5066905;28;42951;-78
2023/10/21 15:50:39;;;;;;;;;;;20.80;91.20;;;;;;5065170;28;43886;-78
2023/10/21 15:53:05;;;;;;;;;;;20.80;91.20;;;;;;5065210;28;43101;-78
2023/10/21 15:55:32;;;;;;;;;;;20.80;91.10;;;;;;5048847;28;44413;-78
2023/10/21 15:57:58;;;;;;;;;;;20.90;91.30;;;;;;5066553;28;42832;-78
2023/10/21 16:00:23;;;;;;;;;;;21.00;91.20;;;;;;5066252;28;42876;-78